sensor_id;sensor_type;location;lat;lon;timestamp;temperature;humidity
15288;DHT22;7745;48.708;9.026;2023-05-07T00:00:50;13.10;99.90
15288;DHT22;7745;48.708;9.026;2023-05-07T00:03:17;13.00;99.90
15288;DHT22;7745;48.708;9.026;2023-05-07T00:05:44;13.20;99.90
15288;DHT22;7745;48.708;9.026;2023-05-07T00:08:14;13.00;99.90
15288;DHT22;7745;48.708;9.026;2023-05-07T00:10:41;13.00;99.90
15288;DHT22;7745;48.708;9.026;2023-05-07T00:13:13;12.80;99.90
15288;DHT22;7745;48.708;9.026;2023-05-07T00:15:40;12.90;99.90
15288;DHT22;7745;48.708;9.026;2023-05-07T00:18:08;12.90;99.90
15288;DHT22;7745;48.708;9.026;2023-05-07T00:20:35;13.10;99.90
15288;DHT22;7745;48.708;9.026;2023-05-07T00:23:04;13.00;99.90
15288;DHT22;7745;48.708;9.026;2023-05-07T00:25:34;13.00;99.90
15288;DHT22;7745;48.708;9.026;2023-05-07T00:28:01;12.90;99.90
15288;DHT22;7745;48.708;9.026;2023-05-07T00:30:29;13.00;99.90
15288;DHT22;7745;48.708;9.026;2023-05-07T00:32:56;13.10;99.90
15288;DHT22;7745;48.708;9.026;2023-05-07T00:35:24;12.80;99.90
15288;DHT22;7745;48.708;9.026;2023-05-07T00:37:51;12.80;99.90
15288;DHT22;7745;48.708;9.026;2023-05-07T00:40:18;12.80;99.90
15288;DHT22;7745;48.708;9.026;2023-05-07T00:42:45;12.80;99.90
15288;DHT22;7745;48.708;9.026;2023-05-07T00:45:12;12.90;99.90
15288;DHT22;7745;48.708;9.026;2023-05-07T00:47:39;12.80;99.90
15288;DHT22;7745;48.708;9.026;2023-05-07T00:50:08;12.80;99.90
15288;DHT22;7745;48.708;9.026;2023-05-07T00:52:37;12.70;99.90
15288;DHT22;7745;48.708;9.026;2023-05-07T00:55:05;12.70;99.90
15288;DHT22;7745;48.708;9.026;2023-05-07T00:57:34;12.70;99.90
15288;DHT22;7745;48.708;9.026;2023-05-07T01:00:03;12.70;99.90
15288;DHT22;7745;48.708;9.026;2023-05-07T01:02:30;12.60;99.90
15288;DHT22;7745;48.708;9.026;2023-05-07T01:04:57;12.60;99.90
15288;DHT22;7745;48.708;9.026;2023-05-07T01:07:24;12.60;99.90
15288;DHT22;7745;48.708;9.026;2023-05-07T01:09:53;12.60;99.90
15288;DHT22;7745;48.708;9.026;2023-05-07T01:12:20;12.50;99.90
15288;DHT22;7745;48.708;9.026;2023-05-07T01:14:47;12.60;99.90
15288;DHT22;7745;48.708;9.026;2023-05-07T01:17:15;12.50;99.90
15288;DHT22;7745;48.708;9.026;2023-05-07T01:19:42;12.50;99.90
15288;DHT22;7745;48.708;9.026;2023-05-07T01:22:10;12.70;99.90
15288;DHT22;7745;48.708;9.026;2023-05-07T01:24:39;12.60;99.90
15288;DHT22;7745;48.708;9.026;2023-05-07T01:27:06;12.50;99.90
15288;DHT22;7745;48.708;9.026;2023-05-07T01:29:33;12.50;99.90
15288;DHT22;7745;48.708;9.026;2023-05-07T01:32:01;12.40;99.90
15288;DHT22;7745;48.708;9.026;2023-05-07T01:34:31;12.40;99.90
15288;DHT22;7745;48.708;9.026;2023-05-07T01:36:59;12.40;99.90
15288;DHT22;7745;48.708;9.026;2023-05-07T01:39:28;12.40;99.90
15288;DHT22;7745;48.708;9.026;2023-05-07T01:41:59;12.30;99.90
15288;DHT22;7745;48.708;9.026;2023-05-07T01:44:26;12.40;99.90
15288;DHT22;7745;48.708;9.026;2023-05-07T01:46:53;12.40;99.90
15288;DHT22;7745;48.708;9.026;2023-05-07T01:49:20;12.40;99.90
15288;DHT22;7745;48.708;9.026;2023-05-07T01:51:48;12.50;99.90
15288;DHT22;7745;48.708;9.026;2023-05-07T01:54:15;12.50;99.90
15288;DHT22;7745;48.708;9.026;2023-05-07T01:56:42;12.50;99.90
15288;DHT22;7745;48.708;9.026;2023-05-07T01:59:10;12.50;99.90
15288;DHT22;7745;48.708;9.026;2023-05-07T02:01:40;12.70;99.90
15288;DHT22;7745;48.708;9.026;2023-05-07T02:04:07;12.50;99.90
15288;DHT22;7745;48.708;9.026;2023-05-07T02:06:34;12.40;99.90
15288;DHT22;7745;48.708;9.026;2023-05-07T02:09:04;12.50;99.90
15288;DHT22;7745;48.708;9.026;2023-05-07T02:11:31;12.50;99.90
15288;DHT22;7745;48.708;9.026;2023-05-07T02:13:58;12.50;99.90
15288;DHT22;7745;48.708;9.026;2023-05-07T02:16:26;12.40;99.90
15288;DHT22;7745;48.708;9.026;2023-05-07T02:18:56;12.40;99.90
15288;DHT22;7745;48.708;9.026;2023-05-07T02:21:26;12.40;99.90
15288;DHT22;7745;48.708;9.026;2023-05-07T02:23:55;12.40;99.90
15288;DHT22;7745;48.708;9.026;2023-05-07T02:26:22;12.30;99.90
15288;DHT22;7745;48.708;9.026;2023-05-07T02:28:51;12.40;99.90
15288;DHT22;7745;48.708;9.026;2023-05-07T02:31:19;12.40;99.90
15288;DHT22;7745;48.708;9.026;2023-05-07T02:33:50;12.50;99.90
15288;DHT22;7745;48.708;9.026;2023-05-07T02:36:17;12.40;99.90
15288;DHT22;7745;48.708;9.026;2023-05-07T02:38:44;12.30;99.90
15288;DHT22;7745;48.708;9.026;2023-05-07T02:41:13;12.50;99.90
15288;DHT22;7745;48.708;9.026;2023-05-07T02:43:42;12.20;99.90
15288;DHT22;7745;48.708;9.026;2023-05-07T02:46:11;12.20;99.90
15288;DHT22;7745;48.708;9.026;2023-05-07T02:48:39;12.30;99.90
15288;DHT22;7745;48.708;9.026;2023-05-07T02:51:08;12.10;99.90
15288;DHT22;7745;48.708;9.026;2023-05-07T02:53:38;12.10;99.90
15288;DHT22;7745;48.708;9.026;2023-05-07T02:56:05;12.20;99.90
15288;DHT22;7745;48.708;9.026;2023-05-07T02:58:34;12.10;99.90
15288;DHT22;7745;48.708;9.026;2023-05-07T03:01:01;12.30;99.90
15288;DHT22;7745;48.708;9.026;2023-05-07T03:03:28;12.00;99.90
15288;DHT22;7745;48.708;9.026;2023-05-07T03:05:55;11.90;99.90
15288;DHT22;7745;48.708;9.026;2023-05-07T03:08:24;11.90;99.90
15288;DHT22;7745;48.708;9.026;2023-05-07T03:10:51;11.90;99.90
15288;DHT22;7745;48.708;9.026;2023-05-07T03:13:18;11.80;99.90
15288;DHT22;7745;48.708;9.026;2023-05-07T03:15:48;11.70;99.90
15288;DHT22;7745;48.708;9.026;2023-05-07T03:18:15;11.70;99.90
15288;DHT22;7745;48.708;9.026;2023-05-07T03:20:45;12.00;99.90
15288;DHT22;7745;48.708;9.026;2023-05-07T03:23:11;11.60;99.90
15288;DHT22;7745;48.708;9.026;2023-05-07T03:25:40;11.60;99.90
15288;DHT22;7745;48.708;9.026;2023-05-07T03:28:06;11.60;99.90
15288;DHT22;7745;48.708;9.026;2023-05-07T03:30:33;11.70;99.90
15288;DHT22;7745;48.708;9.026;2023-05-07T03:33:00;11.50;99.90
15288;DHT22;7745;48.708;9.026;2023-05-07T03:35:27;11.50;99.90
15288;DHT22;7745;48.708;9.026;2023-05-07T03:37:54;11.60;99.90
15288;DHT22;7745;48.708;9.026;2023-05-07T03:40:24;11.50;99.90
15288;DHT22;7745;48.708;9.026;2023-05-07T03:42:52;11.60;99.90
15288;DHT22;7745;48.708;9.026;2023-05-07T03:45:19;11.60;99.90
15288;DHT22;7745;48.708;9.026;2023-05-07T03:47:46;11.50;99.90
15288;DHT22;7745;48.708;9.026;2023-05-07T03:50:13;11.50;99.90
15288;DHT22;7745;48.708;9.026;2023-05-07T03:52:40;11.50;99.90
15288;DHT22;7745;48.708;9.026;2023-05-07T03:55:07;11.40;99.90
15288;DHT22;7745;48.708;9.026;2023-05-07T03:57:35;11.50;99.90
15288;DHT22;7745;48.708;9.026;2023-05-07T04:00:04;11.50;99.90
15288;DHT22;7745;48.708;9.026;2023-05-07T04:02:32;11.50;99.90
15288;DHT22;7745;48.708;9.026;2023-05-07T04:04:59;11.50;99.90
15288;DHT22;7745;48.708;9.026;2023-05-07T04:07:26;11.60;99.90
15288;DHT22;7745;48.708;9.026;2023-05-07T04:09:53;11.50;99.90
15288;DHT22;7745;48.708;9.026;2023-05-07T04:12:20;11.50;99.90
15288;DHT22;7745;48.708;9.026;2023-05-07T04:14:50;11.60;99.90
15288;DHT22;7745;48.708;9.026;2023-05-07T04:17:18;11.60;99.90
15288;DHT22;7745;48.708;9.026;2023-05-07T04:19:45;11.40;99.90
15288;DHT22;7745;48.708;9.026;2023-05-07T04:22:12;11.40;99.90
15288;DHT22;7745;48.708;9.026;2023-05-07T04:24:39;11.30;99.90
15288;DHT22;7745;48.708;9.026;2023-05-07T04:27:08;11.40;99.90
15288;DHT22;7745;48.708;9.026;2023-05-07T04:29:35;11.60;99.90
15288;DHT22;7745;48.708;9.026;2023-05-07T04:32:10;11.30;99.90
15288;DHT22;7745;48.708;9.026;2023-05-07T04:34:39;11.30;99.90
15288;DHT22;7745;48.708;9.026;2023-05-07T04:37:18;11.50;99.90
15288;DHT22;7745;48.708;9.026;2023-05-07T04:40:16;11.20;99.90
15288;DHT22;7745;48.708;9.026;2023-05-07T04:42:47;11.40;99.90
15288;DHT22;7745;48.708;9.026;2023-05-07T04:45:14;11.30;99.90
15288;DHT22;7745;48.708;9.026;2023-05-07T04:47:41;11.20;99.90
15288;DHT22;7745;48.708;9.026;2023-05-07T04:50:10;11.20;99.90
15288;DHT22;7745;48.708;9.026;2023-05-07T04:52:37;11.30;99.90
15288;DHT22;7745;48.708;9.026;2023-05-07T04:55:10;11.30;99.90
15288;DHT22;7745;48.708;9.026;2023-05-07T04:57:39;11.30;99.90
15288;DHT22;7745;48.708;9.026;2023-05-07T05:00:07;11.40;99.90
15288;DHT22;7745;48.708;9.026;2023-05-07T05:02:37;11.40;99.90
15288;DHT22;7745;48.708;9.026;2023-05-07T05:09:28;11.50;99.90
15288;DHT22;7745;48.708;9.026;2023-05-07T05:15:30;11.60;99.90
15288;DHT22;7745;48.708;9.026;2023-05-07T05:17:57;11.70;99.90
15288;DHT22;7745;48.708;9.026;2023-05-07T05:20:32;11.90;99.90
15288;DHT22;7745;48.708;9.026;2023-05-07T05:23:04;12.10;99.90
15288;DHT22;7745;48.708;9.026;2023-05-07T05:25:46;12.30;99.90
15288;DHT22;7745;48.708;9.026;2023-05-07T05:28:13;12.40;99.90
15288;DHT22;7745;48.708;9.026;2023-05-07T05:30:40;12.60;99.90
15288;DHT22;7745;48.708;9.026;2023-05-07T05:33:31;12.80;99.90
15288;DHT22;7745;48.708;9.026;2023-05-07T05:35:58;13.10;99.90
15288;DHT22;7745;48.708;9.026;2023-05-07T05:38:25;13.20;99.90
15288;DHT22;7745;48.708;9.026;2023-05-07T05:41:13;13.40;99.90
15288;DHT22;7745;48.708;9.026;2023-05-07T05:43:40;13.50;99.90
15288;DHT22;7745;48.708;9.026;2023-05-07T05:46:07;13.70;99.90
15288;DHT22;7745;48.708;9.026;2023-05-07T05:48:37;13.80;99.90
15288;DHT22;7745;48.708;9.026;2023-05-07T05:51:03;14.00;99.90
15288;DHT22;7745;48.708;9.026;2023-05-07T05:53:30;14.20;99.90
15288;DHT22;7745;48.708;9.026;2023-05-07T05:55:57;14.30;99.90
15288;DHT22;7745;48.708;9.026;2023-05-07T05:58:26;14.50;99.90
15288;DHT22;7745;48.708;9.026;2023-05-07T06:00:52;14.60;99.90
15288;DHT22;7745;48.708;9.026;2023-05-07T06:03:20;14.70;99.90
15288;DHT22;7745;48.708;9.026;2023-05-07T06:05:46;14.70;99.90
15288;DHT22;7745;48.708;9.026;2023-05-07T06:08:13;14.60;99.90
15288;DHT22;7745;48.708;9.026;2023-05-07T06:10:40;14.30;99.90
15288;DHT22;7745;48.708;9.026;2023-05-07T06:13:07;14.50;99.90
15288;DHT22;7745;48.708;9.026;2023-05-07T06:15:35;14.60;99.90
15288;DHT22;7745;48.708;9.026;2023-05-07T06:18:02;14.70;99.90
15288;DHT22;7745;48.708;9.026;2023-05-07T06:20:28;14.80;99.90
15288;DHT22;7745;48.708;9.026;2023-05-07T06:22:55;15.00;99.90
15288;DHT22;7745;48.708;9.026;2023-05-07T06:25:22;15.20;99.90
15288;DHT22;7745;48.708;9.026;2023-05-07T06:27:49;15.30;99.90
15288;DHT22;7745;48.708;9.026;2023-05-07T06:30:16;15.40;99.90
15288;DHT22;7745;48.708;9.026;2023-05-07T06:32:46;15.40;99.90
15288;DHT22;7745;48.708;9.026;2023-05-07T06:35:12;15.50;99.90
15288;DHT22;7745;48.708;9.026;2023-05-07T06:37:40;15.50;99.90
15288;DHT22;7745;48.708;9.026;2023-05-07T06:40:08;15.60;99.90
15288;DHT22;7745;48.708;9.026;2023-05-07T06:42:35;15.70;99.90
15288;DHT22;7745;48.708;9.026;2023-05-07T06:45:03;15.80;99.90
15288;DHT22;7745;48.708;9.026;2023-05-07T06:47:30;15.90;99.90
15288;DHT22;7745;48.708;9.026;2023-05-07T06:49:58;16.10;99.90
15288;DHT22;7745;48.708;9.026;2023-05-07T06:52:25;16.20;99.90
15288;DHT22;7745;48.708;9.026;2023-05-07T06:54:52;16.30;99.90
15288;DHT22;7745;48.708;9.026;2023-05-07T06:57:18;16.50;99.90
15288;DHT22;7745;48.708;9.026;2023-05-07T07:22:49;18.20;99.90
15288;DHT22;7745;48.708;9.026;2023-05-07T07:25:16;18.40;99.90
15288;DHT22;7745;48.708;9.026;2023-05-07T07:27:43;18.50;99.90
15288;DHT22;7745;48.708;9.026;2023-05-07T07:30:39;18.60;99.90
15288;DHT22;7745;48.708;9.026;2023-05-07T07:33:09;18.80;99.90
15288;DHT22;7745;48.708;9.026;2023-05-07T07:35:50;19.00;99.90
15288;DHT22;7745;48.708;9.026;2023-05-07T07:38:18;19.30;99.90
15288;DHT22;7745;48.708;9.026;2023-05-07T07:40:45;19.30;99.90
15288;DHT22;7745;48.708;9.026;2023-05-07T07:43:11;19.50;99.90
15288;DHT22;7745;48.708;9.026;2023-05-07T07:45:38;19.60;99.90
15288;DHT22;7745;48.708;9.026;2023-05-07T07:48:05;19.60;99.90
15288;DHT22;7745;48.708;9.026;2023-05-07T07:50:32;19.60;99.90
15288;DHT22;7745;48.708;9.026;2023-05-07T07:52:59;19.60;99.90
15288;DHT22;7745;48.708;9.026;2023-05-07T07:55:27;19.70;99.90
15288;DHT22;7745;48.708;9.026;2023-05-07T07:57:54;19.60;99.90
15288;DHT22;7745;48.708;9.026;2023-05-07T08:00:20;19.60;99.90
15288;DHT22;7745;48.708;9.026;2023-05-07T08:02:47;19.50;99.90
15288;DHT22;7745;48.708;9.026;2023-05-07T08:05:14;19.60;99.90
15288;DHT22;7745;48.708;9.026;2023-05-07T08:07:41;19.70;99.90
15288;DHT22;7745;48.708;9.026;2023-05-07T08:10:08;19.80;99.90
15288;DHT22;7745;48.708;9.026;2023-05-07T08:12:59;19.90;99.90
15288;DHT22;7745;48.708;9.026;2023-05-07T08:15:26;20.20;99.90
15288;DHT22;7745;48.708;9.026;2023-05-07T08:17:58;20.30;99.90
15288;DHT22;7745;48.708;9.026;2023-05-07T08:20:25;20.60;99.90
15288;DHT22;7745;48.708;9.026;2023-05-07T08:22:52;20.80;99.90
15288;DHT22;7745;48.708;9.026;2023-05-07T08:28:16;20.90;99.90
15288;DHT22;7745;48.708;9.026;2023-05-07T08:30:43;20.90;99.90
15288;DHT22;7745;48.708;9.026;2023-05-07T08:33:09;20.90;99.90
15288;DHT22;7745;48.708;9.026;2023-05-07T08:35:36;20.60;99.90
15288;DHT22;7745;48.708;9.026;2023-05-07T08:38:03;20.60;99.90
15288;DHT22;7745;48.708;9.026;2023-05-07T08:40:36;20.70;99.90
15288;DHT22;7745;48.708;9.026;2023-05-07T08:43:04;20.80;99.90
15288;DHT22;7745;48.708;9.026;2023-05-07T08:45:34;20.90;99.90
15288;DHT22;7745;48.708;9.026;2023-05-07T08:48:02;21.00;99.90
15288;DHT22;7745;48.708;9.026;2023-05-07T08:50:29;21.00;99.90
15288;DHT22;7745;48.708;9.026;2023-05-07T08:52:56;21.00;99.90
15288;DHT22;7745;48.708;9.026;2023-05-07T08:55:24;21.10;99.90
15288;DHT22;7745;48.708;9.026;2023-05-07T08:57:51;21.10;99.90
15288;DHT22;7745;48.708;9.026;2023-05-07T09:00:18;21.00;99.90
15288;DHT22;7745;48.708;9.026;2023-05-07T09:02:47;21.00;99.90
15288;DHT22;7745;48.708;9.026;2023-05-07T09:05:13;21.00;99.90
15288;DHT22;7745;48.708;9.026;2023-05-07T09:07:49;21.00;99.90
15288;DHT22;7745;48.708;9.026;2023-05-07T09:10:23;21.00;99.90
15288;DHT22;7745;48.708;9.026;2023-05-07T09:13:02;21.10;99.90
15288;DHT22;7745;48.708;9.026;2023-05-07T09:15:32;21.30;99.90
15288;DHT22;7745;48.708;9.026;2023-05-07T09:18:07;21.50;99.90
15288;DHT22;7745;48.708;9.026;2023-05-07T09:20:48;21.50;99.90
15288;DHT22;7745;48.708;9.026;2023-05-07T09:23:38;21.60;99.90
15288;DHT22;7745;48.708;9.026;2023-05-07T09:47:34;22.60;99.90
15288;DHT22;7745;48.708;9.026;2023-05-07T09:52:07;23.00;99.90
15288;DHT22;7745;48.708;9.026;2023-05-07T10:32:25;23.20;99.90
15288;DHT22;7745;48.708;9.026;2023-05-07T10:35:09;23.30;99.90
15288;DHT22;7745;48.708;9.026;2023-05-07T10:38:00;23.40;99.90
15288;DHT22;7745;48.708;9.026;2023-05-07T10:50:29;23.60;99.90
15288;DHT22;7745;48.708;9.026;2023-05-07T11:06:32;23.60;99.90
15288;DHT22;7745;48.708;9.026;2023-05-07T11:09:00;23.30;99.90
15288;DHT22;7745;48.708;9.026;2023-05-07T11:14:50;23.40;99.90
15288;DHT22;7745;48.708;9.026;2023-05-07T11:17:26;23.40;99.90
15288;DHT22;7745;48.708;9.026;2023-05-07T11:26:31;23.00;99.90
15288;DHT22;7745;48.708;9.026;2023-05-07T11:29:22;22.70;99.90
15288;DHT22;7745;48.708;9.026;2023-05-07T11:35:24;22.20;99.90
15288;DHT22;7745;48.708;9.026;2023-05-07T11:38:05;22.10;99.90
15288;DHT22;7745;48.708;9.026;2023-05-07T11:40:33;22.00;99.90
15288;DHT22;7745;48.708;9.026;2023-05-07T11:43:10;22.00;99.90
15288;DHT22;7745;48.708;9.026;2023-05-07T11:48:18;21.80;99.90
15288;DHT22;7745;48.708;9.026;2023-05-07T11:51:04;21.60;99.90
15288;DHT22;7745;48.708;9.026;2023-05-07T11:53:56;21.50;99.90
15288;DHT22;7745;48.708;9.026;2023-05-07T11:56:44;21.20;99.90
15288;DHT22;7745;48.708;9.026;2023-05-07T12:06:54;19.10;99.90
15288;DHT22;7745;48.708;9.026;2023-05-07T12:13:34;16.90;99.90
15288;DHT22;7745;48.708;9.026;2023-05-07T12:19:54;15.70;99.90
15288;DHT22;7745;48.708;9.026;2023-05-07T12:23:09;15.30;99.90
15288;DHT22;7745;48.708;9.026;2023-05-07T12:35:32;15.40;99.90
15288;DHT22;7745;48.708;9.026;2023-05-07T12:37:59;15.60;99.90
15288;DHT22;7745;48.708;9.026;2023-05-07T12:50:51;15.70;99.90
15288;DHT22;7745;48.708;9.026;2023-05-07T13:00:34;16.10;99.90
15288;DHT22;7745;48.708;9.026;2023-05-07T13:10:08;16.20;99.90
15288;DHT22;7745;48.708;9.026;2023-05-07T13:22:51;15.90;99.90
15288;DHT22;7745;48.708;9.026;2023-05-07T13:30:27;16.00;99.90
15288;DHT22;7745;48.708;9.026;2023-05-07T13:32:55;15.90;99.90
15288;DHT22;7745;48.708;9.026;2023-05-07T13:35:28;15.80;99.90
15288;DHT22;7745;48.708;9.026;2023-05-07T13:37:57;16.00;99.90
15288;DHT22;7745;48.708;9.026;2023-05-07T13:40:26;16.10;99.90
15288;DHT22;7745;48.708;9.026;2023-05-07T13:43:08;16.20;99.90
15288;DHT22;7745;48.708;9.026;2023-05-07T13:45:47;16.20;99.90
15288;DHT22;7745;48.708;9.026;2023-05-07T13:48:47;16.20;99.90
15288;DHT22;7745;48.708;9.026;2023-05-07T13:51:40;16.30;99.90
15288;DHT22;7745;48.708;9.026;2023-05-07T13:58:03;16.40;99.90
15288;DHT22;7745;48.708;9.026;2023-05-07T14:00:54;16.30;99.90
15288;DHT22;7745;48.708;9.026;2023-05-07T14:03:24;16.30;99.90
15288;DHT22;7745;48.708;9.026;2023-05-07T14:05:54;16.20;99.90
15288;DHT22;7745;48.708;9.026;2023-05-07T14:08:31;16.20;99.90
15288;DHT22;7745;48.708;9.026;2023-05-07T14:11:07;16.10;99.90
15288;DHT22;7745;48.708;9.026;2023-05-07T14:13:40;16.20;99.90
15288;DHT22;7745;48.708;9.026;2023-05-07T14:16:23;16.40;99.90
15288;DHT22;7745;48.708;9.026;2023-05-07T14:18:50;16.20;99.90
15288;DHT22;7745;48.708;9.026;2023-05-07T14:21:17;16.20;99.90
15288;DHT22;7745;48.708;9.026;2023-05-07T14:23:44;16.10;99.90
15288;DHT22;7745;48.708;9.026;2023-05-07T14:26:10;16.20;99.90
15288;DHT22;7745;48.708;9.026;2023-05-07T14:28:37;16.20;99.90
15288;DHT22;7745;48.708;9.026;2023-05-07T14:31:05;16.20;99.90
15288;DHT22;7745;48.708;9.026;2023-05-07T14:33:33;16.20;99.90
15288;DHT22;7745;48.708;9.026;2023-05-07T14:35:59;16.10;99.90
15288;DHT22;7745;48.708;9.026;2023-05-07T14:38:26;16.10;99.90
15288;DHT22;7745;48.708;9.026;2023-05-07T14:40:53;16.20;99.90
15288;DHT22;7745;48.708;9.026;2023-05-07T14:43:21;16.10;99.90
15288;DHT22;7745;48.708;9.026;2023-05-07T14:45:48;16.20;99.90
15288;DHT22;7745;48.708;9.026;2023-05-07T14:48:15;16.10;99.90
15288;DHT22;7745;48.708;9.026;2023-05-07T14:50:43;16.10;99.90
15288;DHT22;7745;48.708;9.026;2023-05-07T14:53:10;16.00;99.90
15288;DHT22;7745;48.708;9.026;2023-05-07T14:55:36;16.10;99.90
15288;DHT22;7745;48.708;9.026;2023-05-07T14:58:03;16.00;99.90
15288;DHT22;7745;48.708;9.026;2023-05-07T15:00:31;16.00;99.90
15288;DHT22;7745;48.708;9.026;2023-05-07T15:03:05;16.00;99.90
15288;DHT22;7745;48.708;9.026;2023-05-07T15:05:32;16.00;99.90
15288;DHT22;7745;48.708;9.026;2023-05-07T15:08:00;16.00;99.90
15288;DHT22;7745;48.708;9.026;2023-05-07T15:10:27;16.10;99.90
15288;DHT22;7745;48.708;9.026;2023-05-07T15:12:54;16.10;99.90
15288;DHT22;7745;48.708;9.026;2023-05-07T15:15:21;16.10;99.90
15288;DHT22;7745;48.708;9.026;2023-05-07T15:17:47;16.10;99.90
15288;DHT22;7745;48.708;9.026;2023-05-07T15:20:14;16.10;99.90
15288;DHT22;7745;48.708;9.026;2023-05-07T15:22:41;16.10;99.90
15288;DHT22;7745;48.708;9.026;2023-05-07T15:25:09;16.20;99.90
15288;DHT22;7745;48.708;9.026;2023-05-07T15:27:36;16.30;99.90
15288;DHT22;7745;48.708;9.026;2023-05-07T15:30:04;16.40;99.90
15288;DHT22;7745;48.708;9.026;2023-05-07T15:32:31;16.40;99.90
15288;DHT22;7745;48.708;9.026;2023-05-07T15:34:58;16.50;99.90
15288;DHT22;7745;48.708;9.026;2023-05-07T15:37:24;16.50;99.90
15288;DHT22;7745;48.708;9.026;2023-05-07T15:39:51;16.60;99.90
15288;DHT22;7745;48.708;9.026;2023-05-07T15:42:19;16.60;99.90
15288;DHT22;7745;48.708;9.026;2023-05-07T15:44:46;16.70;99.90
15288;DHT22;7745;48.708;9.026;2023-05-07T15:47:13;16.80;99.90
15288;DHT22;7745;48.708;9.026;2023-05-07T15:49:40;16.80;99.90
15288;DHT22;7745;48.708;9.026;2023-05-07T15:52:07;16.90;99.90
15288;DHT22;7745;48.708;9.026;2023-05-07T15:54:35;17.00;99.90
15288;DHT22;7745;48.708;9.026;2023-05-07T15:57:03;16.90;99.90
15288;DHT22;7745;48.708;9.026;2023-05-07T15:59:33;17.10;99.90
15288;DHT22;7745;48.708;9.026;2023-05-07T16:02:00;17.20;99.90
15288;DHT22;7745;48.708;9.026;2023-05-07T16:04:28;17.40;99.90
15288;DHT22;7745;48.708;9.026;2023-05-07T16:06:54;17.50;99.90
15288;DHT22;7745;48.708;9.026;2023-05-07T16:09:21;17.60;99.90
15288;DHT22;7745;48.708;9.026;2023-05-07T16:11:49;17.50;99.90
15288;DHT22;7745;48.708;9.026;2023-05-07T16:14:16;17.50;99.90
15288;DHT22;7745;48.708;9.026;2023-05-07T16:16:44;17.50;99.90
15288;DHT22;7745;48.708;9.026;2023-05-07T16:19:11;17.50;99.90
15288;DHT22;7745;48.708;9.026;2023-05-07T16:21:37;17.50;99.90
15288;DHT22;7745;48.708;9.026;2023-05-07T16:24:04;17.50;99.90
15288;DHT22;7745;48.708;9.026;2023-05-07T16:26:31;17.40;99.90
15288;DHT22;7745;48.708;9.026;2023-05-07T16:28:59;17.40;99.90
15288;DHT22;7745;48.708;9.026;2023-05-07T16:31:25;17.40;99.90
15288;DHT22;7745;48.708;9.026;2023-05-07T16:33:54;17.20;99.90
15288;DHT22;7745;48.708;9.026;2023-05-07T16:36:21;17.20;99.90
15288;DHT22;7745;48.708;9.026;2023-05-07T16:38:47;17.20;99.90
15288;DHT22;7745;48.708;9.026;2023-05-07T16:41:14;17.20;99.90
15288;DHT22;7745;48.708;9.026;2023-05-07T16:43:41;17.20;99.90
15288;DHT22;7745;48.708;9.026;2023-05-07T16:46:08;17.10;99.90
15288;DHT22;7745;48.708;9.026;2023-05-07T16:48:34;17.10;99.90
15288;DHT22;7745;48.708;9.026;2023-05-07T16:51:03;17.00;99.90
15288;DHT22;7745;48.708;9.026;2023-05-07T16:53:31;17.00;99.90
15288;DHT22;7745;48.708;9.026;2023-05-07T16:55:58;16.90;99.90
15288;DHT22;7745;48.708;9.026;2023-05-07T16:58:25;16.80;99.90
15288;DHT22;7745;48.708;9.026;2023-05-07T17:00:52;16.70;99.90
15288;DHT22;7745;48.708;9.026;2023-05-07T17:03:19;16.70;99.90
15288;DHT22;7745;48.708;9.026;2023-05-07T17:05:46;16.80;99.90
15288;DHT22;7745;48.708;9.026;2023-05-07T17:08:14;16.60;99.90
15288;DHT22;7745;48.708;9.026;2023-05-07T17:10:41;16.60;99.90
15288;DHT22;7745;48.708;9.026;2023-05-07T17:13:08;16.60;99.90
15288;DHT22;7745;48.708;9.026;2023-05-07T17:15:34;16.60;99.90
15288;DHT22;7745;48.708;9.026;2023-05-07T17:18:01;16.60;99.90
15288;DHT22;7745;48.708;9.026;2023-05-07T17:20:28;16.50;99.90
15288;DHT22;7745;48.708;9.026;2023-05-07T17:22:55;16.50;99.90
15288;DHT22;7745;48.708;9.026;2023-05-07T17:25:23;16.50;99.90
15288;DHT22;7745;48.708;9.026;2023-05-07T17:27:50;16.50;99.90
15288;DHT22;7745;48.708;9.026;2023-05-07T17:30:17;16.40;99.90
15288;DHT22;7745;48.708;9.026;2023-05-07T17:32:43;16.40;99.90
15288;DHT22;7745;48.708;9.026;2023-05-07T17:35:10;16.50;99.90
15288;DHT22;7745;48.708;9.026;2023-05-07T17:37:37;16.30;99.90
15288;DHT22;7745;48.708;9.026;2023-05-07T17:40:05;16.30;99.90
15288;DHT22;7745;48.708;9.026;2023-05-07T17:42:34;16.20;99.90
15288;DHT22;7745;48.708;9.026;2023-05-07T17:45:00;16.10;99.90
15288;DHT22;7745;48.708;9.026;2023-05-07T17:47:27;16.10;99.90
15288;DHT22;7745;48.708;9.026;2023-05-07T17:49:54;16.10;99.90
15288;DHT22;7745;48.708;9.026;2023-05-07T17:52:21;16.00;99.90
15288;DHT22;7745;48.708;9.026;2023-05-07T17:54:48;16.00;99.90
15288;DHT22;7745;48.708;9.026;2023-05-07T17:57:15;16.00;99.90
15288;DHT22;7745;48.708;9.026;2023-05-07T17:59:54;15.90;99.90
15288;DHT22;7745;48.708;9.026;2023-05-07T18:02:21;15.90;99.90
15288;DHT22;7745;48.708;9.026;2023-05-07T18:04:48;15.90;99.90
15288;DHT22;7745;48.708;9.026;2023-05-07T18:07:15;15.80;99.90
15288;DHT22;7745;48.708;9.026;2023-05-07T18:09:42;15.90;99.90
15288;DHT22;7745;48.708;9.026;2023-05-07T18:12:08;15.90;99.90
15288;DHT22;7745;48.708;9.026;2023-05-07T18:14:35;15.90;99.90
15288;DHT22;7745;48.708;9.026;2023-05-07T18:17:03;15.90;99.90
15288;DHT22;7745;48.708;9.026;2023-05-07T18:19:30;15.90;99.90
15288;DHT22;7745;48.708;9.026;2023-05-07T18:21:57;15.90;99.90
15288;DHT22;7745;48.708;9.026;2023-05-07T18:24:23;15.90;99.90
15288;DHT22;7745;48.708;9.026;2023-05-07T18:26:51;15.80;99.90
15288;DHT22;7745;48.708;9.026;2023-05-07T18:29:19;15.80;99.90
15288;DHT22;7745;48.708;9.026;2023-05-07T18:31:45;15.80;99.90
15288;DHT22;7745;48.708;9.026;2023-05-07T18:34:14;15.80;99.90
15288;DHT22;7745;48.708;9.026;2023-05-07T18:36:40;15.80;99.90
15288;DHT22;7745;48.708;9.026;2023-05-07T18:39:07;15.70;99.90
15288;DHT22;7745;48.708;9.026;2023-05-07T18:41:34;15.70;99.90
15288;DHT22;7745;48.708;9.026;2023-05-07T18:44:01;15.70;99.90
15288;DHT22;7745;48.708;9.026;2023-05-07T18:46:28;15.60;99.90
15288;DHT22;7745;48.708;9.026;2023-05-07T18:48:55;15.60;99.90
15288;DHT22;7745;48.708;9.026;2023-05-07T18:51:23;15.50;99.90
15288;DHT22;7745;48.708;9.026;2023-05-07T18:53:50;15.50;99.90
15288;DHT22;7745;48.708;9.026;2023-05-07T18:56:16;15.50;99.90
15288;DHT22;7745;48.708;9.026;2023-05-07T18:58:43;15.50;99.90
15288;DHT22;7745;48.708;9.026;2023-05-07T19:01:10;15.50;99.90
15288;DHT22;7745;48.708;9.026;2023-05-07T19:03:37;15.40;99.90
15288;DHT22;7745;48.708;9.026;2023-05-07T19:06:04;15.40;99.90
15288;DHT22;7745;48.708;9.026;2023-05-07T19:08:32;15.40;99.90
15288;DHT22;7745;48.708;9.026;2023-05-07T19:10:59;15.40;99.90
15288;DHT22;7745;48.708;9.026;2023-05-07T19:13:26;15.40;99.90
15288;DHT22;7745;48.708;9.026;2023-05-07T19:15:53;15.30;99.90
15288;DHT22;7745;48.708;9.026;2023-05-07T19:18:34;15.30;99.90
15288;DHT22;7745;48.708;9.026;2023-05-07T19:21:01;15.30;99.90